sensor_id;sensor_type;location;lat;lon;timestamp;P1;durP1;ratioP1;P2;durP2;ratioP2
5742;SDS011;2896;53.500;10.020;2023-12-20T00:00:36;34.83;;;4.00;;
5742;SDS011;2896;53.500;10.020;2023-12-20T00:03:03;18.23;;;2.20;;
5742;SDS011;2896;53.500;10.020;2023-12-20T00:05:30;10.20;;;3.43;;
5742;SDS011;2896;53.500;10.020;2023-12-20T00:07:58;8.37;;;2.07;;
5742;SDS011;2896;53.500;10.020;2023-12-20T00:10:26;9.47;;;2.77;;
5742;SDS011;2896;53.500;10.020;2023-12-20T00:12:53;19.30;;;2.67;;
5742;SDS011;2896;53.500;10.020;2023-12-20T00:15:19;20.83;;;2.50;;
5742;SDS011;2896;53.500;10.020;2023-12-20T00:17:46;10.27;;;3.63;;
5742;SDS011;2896;53.500;10.020;2023-12-20T00:20:13;7.93;;;2.33;;
5742;SDS011;2896;53.500;10.020;2023-12-20T00:22:39;11.20;;;3.20;;
5742;SDS011;2896;53.500;10.020;2023-12-20T00:25:06;9.00;;;2.83;;
5742;SDS011;2896;53.500;10.020;2023-12-20T00:27:35;10.93;;;2.90;;
5742;SDS011;2896;53.500;10.020;2023-12-20T00:30:01;8.37;;;2.50;;
5742;SDS011;2896;53.500;10.020;2023-12-20T00:32:28;23.07;;;3.07;;
5742;SDS011;2896;53.500;10.020;2023-12-20T00:34:55;9.80;;;2.33;;
5742;SDS011;2896;53.500;10.020;2023-12-20T00:37:22;16.47;;;3.10;;
5742;SDS011;2896;53.500;10.020;2023-12-20T00:39:49;28.93;;;3.50;;
5742;SDS011;2896;53.500;10.020;2023-12-20T00:42:15;15.17;;;2.67;;
5742;SDS011;2896;53.500;10.020;2023-12-20T00:44:43;27.77;;;3.23;;
5742;SDS011;2896;53.500;10.020;2023-12-20T00:47:10;21.80;;;2.87;;
5742;SDS011;2896;53.500;10.020;2023-12-20T00:49:37;14.83;;;2.87;;
5742;SDS011;2896;53.500;10.020;2023-12-20T00:52:03;7.30;;;2.27;;
5742;SDS011;2896;53.500;10.020;2023-12-20T00:54:31;15.50;;;3.40;;
5742;SDS011;2896;53.500;10.020;2023-12-20T00:56:57;13.23;;;2.67;;
5742;SDS011;2896;53.500;10.020;2023-12-20T00:59:24;18.60;;;2.80;;
5742;SDS011;2896;53.500;10.020;2023-12-20T01:01:52;21.20;;;3.47;;
5742;SDS011;2896;53.500;10.020;2023-12-20T01:04:19;23.20;;;3.07;;
5742;SDS011;2896;53.500;10.020;2023-12-20T01:06:46;23.00;;;4.00;;
5742;SDS011;2896;53.500;10.020;2023-12-20T01:09:13;20.87;;;2.40;;
5742;SDS011;2896;53.500;10.020;2023-12-20T01:11:39;16.53;;;3.30;;
5742;SDS011;2896;53.500;10.020;2023-12-20T01:14:06;13.10;;;3.23;;
5742;SDS011;2896;53.500;10.020;2023-12-20T01:16:33;22.40;;;3.57;;
5742;SDS011;2896;53.500;10.020;2023-12-20T01:19:01;15.00;;;2.60;;
5742;SDS011;2896;53.500;10.020;2023-12-20T01:21:27;11.57;;;3.00;;
5742;SDS011;2896;53.500;10.020;2023-12-20T01:23:54;23.10;;;3.77;;
5742;SDS011;2896;53.500;10.020;2023-12-20T01:26:21;13.67;;;3.07;;
5742;SDS011;2896;53.500;10.020;2023-12-20T01:28:47;22.50;;;3.83;;
5742;SDS011;2896;53.500;10.020;2023-12-20T01:31:14;10.20;;;2.87;;
5742;SDS011;2896;53.500;10.020;2023-12-20T01:33:41;20.67;;;3.20;;
5742;SDS011;2896;53.500;10.020;2023-12-20T01:36:09;21.57;;;3.83;;
5742;SDS011;2896;53.500;10.020;2023-12-20T01:38:36;26.70;;;3.50;;
5742;SDS011;2896;53.500;10.020;2023-12-20T01:41:03;17.77;;;4.13;;
5742;SDS011;2896;53.500;10.020;2023-12-20T01:43:30;10.97;;;2.50;;
5742;SDS011;2896;53.500;10.020;2023-12-20T01:45:57;26.07;;;3.40;;
5742;SDS011;2896;53.500;10.020;2023-12-20T01:48:24;15.63;;;2.60;;
5742;SDS011;2896;53.500;10.020;2023-12-20T01:50:51;21.87;;;2.90;;
5742;SDS011;2896;53.500;10.020;2023-12-20T01:53:21;12.13;;;3.10;;
5742;SDS011;2896;53.500;10.020;2023-12-20T01:55:50;20.57;;;2.93;;
5742;SDS011;2896;53.500;10.020;2023-12-20T01:58:20;18.43;;;2.70;;
5742;SDS011;2896;53.500;10.020;2023-12-20T02:00:48;21.10;;;3.73;;
5742;SDS011;2896;53.500;10.020;2023-12-20T02:03:15;9.50;;;2.67;;
5742;SDS011;2896;53.500;10.020;2023-12-20T02:05:42;25.87;;;4.70;;
5742;SDS011;2896;53.500;10.020;2023-12-20T02:08:11;16.73;;;3.60;;
5742;SDS011;2896;53.500;10.020;2023-12-20T02:10:39;19.60;;;3.00;;
5742;SDS011;2896;53.500;10.020;2023-12-20T02:13:07;20.33;;;3.80;;
5742;SDS011;2896;53.500;10.020;2023-12-20T02:15:33;10.17;;;2.80;;
5742;SDS011;2896;53.500;10.020;2023-12-20T02:18:01;20.60;;;2.87;;
5742;SDS011;2896;53.500;10.020;2023-12-20T02:20:28;12.57;;;2.57;;
5742;SDS011;2896;53.500;10.020;2023-12-20T02:22:56;17.00;;;3.10;;
5742;SDS011;2896;53.500;10.020;2023-12-20T02:25:23;24.63;;;2.70;;
5742;SDS011;2896;53.500;10.020;2023-12-20T02:27:50;15.80;;;2.97;;
5742;SDS011;2896;53.500;10.020;2023-12-20T02:30:16;23.03;;;2.47;;
5742;SDS011;2896;53.500;10.020;2023-12-20T02:32:43;17.47;;;3.70;;
5742;SDS011;2896;53.500;10.020;2023-12-20T02:35:10;33.50;;;3.97;;
5742;SDS011;2896;53.500;10.020;2023-12-20T02:37:37;22.30;;;3.43;;
5742;SDS011;2896;53.500;10.020;2023-12-20T02:40:05;20.27;;;3.23;;
5742;SDS011;2896;53.500;10.020;2023-12-20T02:42:33;15.00;;;3.10;;
5742;SDS011;2896;53.500;10.020;2023-12-20T02:44:59;20.00;;;2.87;;
5742;SDS011;2896;53.500;10.020;2023-12-20T02:47:26;21.33;;;3.30;;
5742;SDS011;2896;53.500;10.020;2023-12-20T02:49:54;17.43;;;3.20;;
5742;SDS011;2896;53.500;10.020;2023-12-20T02:52:21;21.30;;;2.97;;
5742;SDS011;2896;53.500;10.020;2023-12-20T02:54:48;27.03;;;4.07;;
5742;SDS011;2896;53.500;10.020;2023-12-20T02:57:16;11.23;;;3.20;;
5742;SDS011;2896;53.500;10.020;2023-12-20T02:59:43;22.53;;;3.37;;
5742;SDS011;2896;53.500;10.020;2023-12-20T03:02:10;17.93;;;3.60;;
5742;SDS011;2896;53.500;10.020;2023-12-20T03:04:36;18.27;;;3.27;;
5742;SDS011;2896;53.500;10.020;2023-12-20T03:07:03;20.20;;;4.00;;
5742;SDS011;2896;53.500;10.020;2023-12-20T03:09:30;18.77;;;4.17;;
5742;SDS011;2896;53.500;10.020;2023-12-20T03:11:56;14.40;;;3.13;;
5742;SDS011;2896;53.500;10.020;2023-12-20T03:14:24;17.50;;;3.47;;
5742;SDS011;2896;53.500;10.020;2023-12-20T03:16:51;14.27;;;3.37;;
5742;SDS011;2896;53.500;10.020;2023-12-20T03:19:18;20.27;;;4.20;;
5742;SDS011;2896;53.500;10.020;2023-12-20T03:21:45;13.83;;;2.57;;
5742;SDS011;2896;53.500;10.020;2023-12-20T03:24:11;17.47;;;3.40;;
5742;SDS011;2896;53.500;10.020;2023-12-20T03:26:38;5.90;;;2.43;;
5742;SDS011;2896;53.500;10.020;2023-12-20T03:29:05;10.80;;;2.57;;
5742;SDS011;2896;53.500;10.020;2023-12-20T03:31:33;17.97;;;2.73;;
5742;SDS011;2896;53.500;10.020;2023-12-20T03:33:59;9.70;;;3.20;;
5742;SDS011;2896;53.500;10.020;2023-12-20T03:36:26;24.53;;;3.03;;
5742;SDS011;2896;53.500;10.020;2023-12-20T03:38:53;12.37;;;2.87;;
5742;SDS011;2896;53.500;10.020;2023-12-20T03:41:19;12.37;;;2.83;;
5742;SDS011;2896;53.500;10.020;2023-12-20T03:43:46;15.43;;;4.40;;
5742;SDS011;2896;53.500;10.020;2023-12-20T03:46:12;10.97;;;4.20;;
5742;SDS011;2896;53.500;10.020;2023-12-20T03:48:40;13.73;;;3.23;;
5742;SDS011;2896;53.500;10.020;2023-12-20T03:51:07;12.23;;;3.07;;
5742;SDS011;2896;53.500;10.020;2023-12-20T03:53:34;15.90;;;3.53;;
5742;SDS011;2896;53.500;10.020;2023-12-20T03:56:00;24.47;;;3.10;;
5742;SDS011;2896;53.500;10.020;2023-12-20T03:58:27;17.60;;;3.37;;
5742;SDS011;2896;53.500;10.020;2023-12-20T04:00:54;15.17;;;2.40;;
5742;SDS011;2896;53.500;10.020;2023-12-20T04:03:20;17.53;;;2.80;;
5742;SDS011;2896;53.500;10.020;2023-12-20T04:05:48;12.90;;;2.67;;
5742;SDS011;2896;53.500;10.020;2023-12-20T04:08:15;13.10;;;3.23;;
5742;SDS011;2896;53.500;10.020;2023-12-20T04:10:42;10.93;;;3.23;;
5742;SDS011;2896;53.500;10.020;2023-12-20T04:13:08;9.17;;;2.70;;
5742;SDS011;2896;53.500;10.020;2023-12-20T04:15:35;15.10;;;4.17;;
5742;SDS011;2896;53.500;10.020;2023-12-20T04:18:02;22.93;;;3.90;;
5742;SDS011;2896;53.500;10.020;2023-12-20T04:20:29;19.73;;;2.83;;
5742;SDS011;2896;53.500;10.020;2023-12-20T04:22:57;19.60;;;2.70;;
5742;SDS011;2896;53.500;10.020;2023-12-20T04:25:23;22.83;;;3.20;;
5742;SDS011;2896;53.500;10.020;2023-12-20T04:27:50;29.07;;;4.87;;
5742;SDS011;2896;53.500;10.020;2023-12-20T04:30:17;9.03;;;4.00;;
5742;SDS011;2896;53.500;10.020;2023-12-20T04:32:43;22.87;;;4.90;;
5742;SDS011;2896;53.500;10.020;2023-12-20T04:35:10;10.70;;;3.30;;
5742;SDS011;2896;53.500;10.020;2023-12-20T04:37:37;15.60;;;3.73;;
5742;SDS011;2896;53.500;10.020;2023-12-20T04:40:05;20.90;;;4.90;;
5742;SDS011;2896;53.500;10.020;2023-12-20T04:42:33;16.17;;;3.60;;
5742;SDS011;2896;53.500;10.020;2023-12-20T04:45:00;18.77;;;3.73;;
5742;SDS011;2896;53.500;10.020;2023-12-20T04:47:26;18.93;;;3.93;;
5742;SDS011;2896;53.500;10.020;2023-12-20T04:49:53;13.67;;;3.37;;
5742;SDS011;2896;53.500;10.020;2023-12-20T04:52:20;15.60;;;3.67;;
5742;SDS011;2896;53.500;10.020;2023-12-20T04:54:46;16.87;;;3.70;;
5742;SDS011;2896;53.500;10.020;2023-12-20T04:57:15;16.50;;;3.57;;
5742;SDS011;2896;53.500;10.020;2023-12-20T04:59:41;13.23;;;3.90;;
5742;SDS011;2896;53.500;10.020;2023-12-20T05:02:08;18.90;;;4.43;;
5742;SDS011;2896;53.500;10.020;2023-12-20T05:04:34;24.13;;;4.73;;
5742;SDS011;2896;53.500;10.020;2023-12-20T05:07:01;18.17;;;4.50;;
5742;SDS011;2896;53.500;10.020;2023-12-20T05:09:29;13.50;;;3.03;;
5742;SDS011;2896;53.500;10.020;2023-12-20T05:11:56;14.40;;;3.90;;
5742;SDS011;2896;53.500;10.020;2023-12-20T05:14:24;13.87;;;4.20;;
5742;SDS011;2896;53.500;10.020;2023-12-20T05:16:51;12.23;;;3.50;;
5742;SDS011;2896;53.500;10.020;2023-12-20T05:19:18;16.10;;;3.43;;
5742;SDS011;2896;53.500;10.020;2023-12-20T05:21:44;18.73;;;3.27;;
5742;SDS011;2896;53.500;10.020;2023-12-20T05:24:11;11.83;;;3.63;;
5742;SDS011;2896;53.500;10.020;2023-12-20T05:26:37;20.53;;;4.03;;
5742;SDS011;2896;53.500;10.020;2023-12-20T05:29:04;12.27;;;4.67;;
5742;SDS011;2896;53.500;10.020;2023-12-20T05:31:32;20.30;;;4.53;;
5742;SDS011;2896;53.500;10.020;2023-12-20T05:33:59;23.40;;;5.30;;
5742;SDS011;2896;53.500;10.020;2023-12-20T05:36:25;18.87;;;4.60;;
5742;SDS011;2896;53.500;10.020;2023-12-20T05:38:53;21.63;;;4.20;;
5742;SDS011;2896;53.500;10.020;2023-12-20T05:41:20;29.87;;;4.63;;
5742;SDS011;2896;53.500;10.020;2023-12-20T05:43:47;17.87;;;5.17;;
5742;SDS011;2896;53.500;10.020;2023-12-20T05:46:14;17.13;;;4.60;;
5742;SDS011;2896;53.500;10.020;2023-12-20T05:48:42;11.97;;;3.40;;
5742;SDS011;2896;53.500;10.020;2023-12-20T05:51:11;14.93;;;4.30;;
5742;SDS011;2896;53.500;10.020;2023-12-20T05:53:38;17.27;;;4.10;;
5742;SDS011;2896;53.500;10.020;2023-12-20T05:56:05;26.50;;;4.00;;
5742;SDS011;2896;53.500;10.020;2023-12-20T05:58:34;21.23;;;4.63;;
5742;SDS011;2896;53.500;10.020;2023-12-20T06:01:00;17.30;;;4.97;;
5742;SDS011;2896;53.500;10.020;2023-12-20T06:03:29;12.00;;;3.77;;
5742;SDS011;2896;53.500;10.020;2023-12-20T06:05:57;19.27;;;3.97;;
5742;SDS011;2896;53.500;10.020;2023-12-20T06:08:25;23.80;;;4.23;;
5742;SDS011;2896;53.500;10.020;2023-12-20T06:10:52;21.80;;;4.70;;
5742;SDS011;2896;53.500;10.020;2023-12-20T06:13:18;20.00;;;4.30;;
5742;SDS011;2896;53.500;10.020;2023-12-20T06:15:45;25.73;;;4.30;;
5742;SDS011;2896;53.500;10.020;2023-12-20T06:18:12;8.43;;;3.60;;
5742;SDS011;2896;53.500;10.020;2023-12-20T06:20:38;24.93;;;3.90;;
5742;SDS011;2896;53.500;10.020;2023-12-20T06:23:06;29.10;;;4.70;;
5742;SDS011;2896;53.500;10.020;2023-12-20T06:25:33;12.97;;;2.93;;
5742;SDS011;2896;53.500;10.020;2023-12-20T06:27:59;18.87;;;4.53;;
5742;SDS011;2896;53.500;10.020;2023-12-20T06:30:26;17.43;;;3.30;;
5742;SDS011;2896;53.500;10.020;2023-12-20T06:32:53;13.27;;;3.47;;
5742;SDS011;2896;53.500;10.020;2023-12-20T06:35:22;20.53;;;3.40;;
5742;SDS011;2896;53.500;10.020;2023-12-20T06:37:49;17.87;;;3.40;;
5742;SDS011;2896;53.500;10.020;2023-12-20T06:40:17;17.93;;;3.50;;
5742;SDS011;2896;53.500;10.020;2023-12-20T06:42:44;19.10;;;4.60;;
5742;SDS011;2896;53.500;10.020;2023-12-20T06:45:10;19.47;;;4.03;;
5742;SDS011;2896;53.500;10.020;2023-12-20T06:47:37;10.47;;;2.97;;
5742;SDS011;2896;53.500;10.020;2023-12-20T06:50:04;21.13;;;4.03;;
5742;SDS011;2896;53.500;10.020;2023-12-20T06:52:33;16.70;;;3.67;;
5742;SDS011;2896;53.500;10.020;2023-12-20T06:54:59;14.60;;;3.10;;
5742;SDS011;2896;53.500;10.020;2023-12-20T06:57:30;20.73;;;3.93;;
5742;SDS011;2896;53.500;10.020;2023-12-20T06:59:57;26.90;;;4.20;;
5742;SDS011;2896;53.500;10.020;2023-12-20T07:02:24;17.47;;;3.73;;
5742;SDS011;2896;53.500;10.020;2023-12-20T07:04:54;18.77;;;3.77;;
5742;SDS011;2896;53.500;10.020;2023-12-20T07:07:20;24.63;;;3.83;;
5742;SDS011;2896;53.500;10.020;2023-12-20T07:09:48;29.73;;;5.30;;
5742;SDS011;2896;53.500;10.020;2023-12-20T07:12:14;28.40;;;4.33;;
5742;SDS011;2896;53.500;10.020;2023-12-20T07:14:44;16.27;;;3.10;;
5742;SDS011;2896;53.500;10.020;2023-12-20T07:17:11;20.57;;;4.00;;
5742;SDS011;2896;53.500;10.020;2023-12-20T07:19:40;20.17;;;4.00;;
5742;SDS011;2896;53.500;10.020;2023-12-20T07:22:07;19.53;;;3.97;;
5742;SDS011;2896;53.500;10.020;2023-12-20T07:24:34;27.20;;;4.50;;
5742;SDS011;2896;53.500;10.020;2023-12-20T07:27:01;35.87;;;5.50;;
5742;SDS011;2896;53.500;10.020;2023-12-20T07:29:27;23.47;;;5.00;;
5742;SDS011;2896;53.500;10.020;2023-12-20T07:31:56;24.20;;;5.00;;
5742;SDS011;2896;53.500;10.020;2023-12-20T07:34:22;26.43;;;5.07;;
5742;SDS011;2896;53.500;10.020;2023-12-20T07:36:49;17.03;;;3.93;;
5742;SDS011;2896;53.500;10.020;2023-12-20T07:39:16;16.43;;;4.50;;
5742;SDS011;2896;53.500;10.020;2023-12-20T07:41:43;20.40;;;3.53;;
5742;SDS011;2896;53.500;10.020;2023-12-20T07:44:10;14.10;;;4.20;;
5742;SDS011;2896;53.500;10.020;2023-12-20T07:46:37;18.87;;;5.13;;
5742;SDS011;2896;53.500;10.020;2023-12-20T07:49:05;21.67;;;3.90;;
5742;SDS011;2896;53.500;10.020;2023-12-20T07:51:33;32.00;;;5.10;;
5742;SDS011;2896;53.500;10.020;2023-12-20T07:54:00;21.17;;;3.60;;
5742;SDS011;2896;53.500;10.020;2023-12-20T07:56:26;29.50;;;5.20;;
5742;SDS011;2896;53.500;10.020;2023-12-20T07:58:53;21.10;;;3.67;;
5742;SDS011;2896;53.500;10.020;2023-12-20T08:01:20;21.73;;;4.03;;
5742;SDS011;2896;53.500;10.020;2023-12-20T08:03:46;22.00;;;3.90;;
5742;SDS011;2896;53.500;10.020;2023-12-20T08:06:16;24.57;;;4.93;;
5742;SDS011;2896;53.500;10.020;2023-12-20T08:08:43;21.10;;;5.50;;
5742;SDS011;2896;53.500;10.020;2023-12-20T08:11:10;19.50;;;4.20;;
5742;SDS011;2896;53.500;10.020;2023-12-20T08:13:37;20.20;;;4.10;;
5742;SDS011;2896;53.500;10.020;2023-12-20T08:16:04;26.63;;;5.17;;
5742;SDS011;2896;53.500;10.020;2023-12-20T08:18:31;40.30;;;5.07;;
5742;SDS011;2896;53.500;10.020;2023-12-20T08:20:59;19.93;;;3.40;;
5742;SDS011;2896;53.500;10.020;2023-12-20T08:23:27;12.93;;;3.77;;
5742;SDS011;2896;53.500;10.020;2023-12-20T08:25:54;18.80;;;3.90;;
5742;SDS011;2896;53.500;10.020;2023-12-20T08:28:21;29.20;;;4.17;;
5742;SDS011;2896;53.500;10.020;2023-12-20T08:30:48;28.23;;;4.43;;
5742;SDS011;2896;53.500;10.020;2023-12-20T08:33:21;15.53;;;4.07;;
5742;SDS011;2896;53.500;10.020;2023-12-20T08:35:48;24.77;;;4.20;;
5742;SDS011;2896;53.500;10.020;2023-12-20T08:38:14;21.10;;;3.57;;
5742;SDS011;2896;53.500;10.020;2023-12-20T08:40:43;12.77;;;4.50;;
5742;SDS011;2896;53.500;10.020;2023-12-20T08:43:10;28.80;;;4.97;;
5742;SDS011;2896;53.500;10.020;2023-12-20T08:45:37;24.23;;;4.00;;
5742;SDS011;2896;53.500;10.020;2023-12-20T08:48:05;19.20;;;4.37;;
5742;SDS011;2896;53.500;10.020;2023-12-20T08:50:37;19.03;;;4.23;;
5742;SDS011;2896;53.500;10.020;2023-12-20T08:53:04;21.03;;;4.43;;
5742;SDS011;2896;53.500;10.020;2023-12-20T08:55:32;15.53;;;4.43;;
5742;SDS011;2896;53.500;10.020;2023-12-20T08:58:00;18.83;;;4.00;;
5742;SDS011;2896;53.500;10.020;2023-12-20T09:00:27;12.90;;;3.00;;
5742;SDS011;2896;53.500;10.020;2023-12-20T09:02:54;21.77;;;4.60;;
5742;SDS011;2896;53.500;10.020;2023-12-20T09:05:21;21.50;;;4.47;;
5742;SDS011;2896;53.500;10.020;2023-12-20T09:07:48;22.77;;;4.10;;
5742;SDS011;2896;53.500;10.020;2023-12-20T09:10:15;14.30;;;3.10;;
5742;SDS011;2896;53.500;10.020;2023-12-20T09:12:46;16.27;;;3.43;;
5742;SDS011;2896;53.500;10.020;2023-12-20T09:15:15;19.43;;;4.13;;
5742;SDS011;2896;53.500;10.020;2023-12-20T09:17:41;11.60;;;2.93;;
5742;SDS011;2896;53.500;10.020;2023-12-20T09:20:09;8.77;;;3.70;;
5742;SDS011;2896;53.500;10.020;2023-12-20T09:22:36;14.83;;;2.40;;
5742;SDS011;2896;53.500;10.020;2023-12-20T09:25:07;6.47;;;1.90;;
5742;SDS011;2896;53.500;10.020;2023-12-20T09:27:35;9.27;;;2.10;;
5742;SDS011;2896;53.500;10.020;2023-12-20T09:30:04;8.27;;;1.87;;
5742;SDS011;2896;53.500;10.020;2023-12-20T09:32:33;7.90;;;2.10;;
5742;SDS011;2896;53.500;10.020;2023-12-20T09:34:59;6.53;;;1.90;;
5742;SDS011;2896;53.500;10.020;2023-12-20T09:37:26;3.87;;;1.70;;
5742;SDS011;2896;53.500;10.020;2023-12-20T09:39:57;5.03;;;1.60;;
5742;SDS011;2896;53.500;10.020;2023-12-20T09:42:25;1.90;;;1.37;;
5742;SDS011;2896;53.500;10.020;2023-12-20T09:44:56;5.30;;;1.47;;
5742;SDS011;2896;53.500;10.020;2023-12-20T09:47:29;2.20;;;1.47;;
5742;SDS011;2896;53.500;10.020;2023-12-20T09:49:57;1.53;;;1.20;;
5742;SDS011;2896;53.500;10.020;2023-12-20T09:52:24;1.50;;;1.33;;
5742;SDS011;2896;53.500;10.020;2023-12-20T09:54:51;3.20;;;1.30;;
5742;SDS011;2896;53.500;10.020;2023-12-20T09:57:20;1.47;;;1.17;;
5742;SDS011;2896;53.500;10.020;2023-12-20T09:59:46;3.27;;;1.13;;
5742;SDS011;2896;53.500;10.020;2023-12-20T10:02:16;3.70;;;1.27;;
5742;SDS011;2896;53.500;10.020;2023-12-20T10:04:47;4.53;;;1.97;;
5742;SDS011;2896;53.500;10.020;2023-12-20T10:07:16;3.77;;;1.20;;
5742;SDS011;2896;53.500;10.020;2023-12-20T10:09:43;2.60;;;1.03;;
5742;SDS011;2896;53.500;10.020;2023-12-20T10:12:11;1.73;;;0.90;;
5742;SDS011;2896;53.500;10.020;2023-12-20T10:14:38;2.80;;;1.00;;
5742;SDS011;2896;53.500;10.020;2023-12-20T10:17:05;1.37;;;0.93;;
5742;SDS011;2896;53.500;10.020;2023-12-20T10:19:33;2.03;;;1.03;;
5742;SDS011;2896;53.500;10.020;2023-12-20T10:22:00;1.17;;;1.10;;
5742;SDS011;2896;53.500;10.020;2023-12-20T10:24:29;1.10;;;1.00;;
5742;SDS011;2896;53.500;10.020;2023-12-20T10:27:02;1.10;;;1.00;;
5742;SDS011;2896;53.500;10.020;2023-12-20T10:29:31;1.23;;;1.10;;
5742;SDS011;2896;53.500;10.020;2023-12-20T10:31:59;2.97;;;1.00;;
5742;SDS011;2896;53.500;10.020;2023-12-20T10:34:25;2.10;;;0.90;;
5742;SDS011;2896;53.500;10.020;2023-12-20T10:36:52;8.80;;;1.20;;
5742;SDS011;2896;53.500;10.020;2023-12-20T10:39:19;9.83;;;1.53;;
5742;SDS011;2896;53.500;10.020;2023-12-20T10:41:48;8.83;;;1.40;;
5742;SDS011;2896;53.500;10.020;2023-12-20T10:44:15;2.00;;;1.20;;
5742;SDS011;2896;53.500;10.020;2023-12-20T10:46:42;1.87;;;1.03;;
5742;SDS011;2896;53.500;10.020;2023-12-20T10:49:16;6.37;;;1.17;;
5742;SDS011;2896;53.500;10.020;2023-12-20T10:51:45;5.40;;;1.47;;
5742;SDS011;2896;53.500;10.020;2023-12-20T10:54:13;4.00;;;1.60;;
5742;SDS011;2896;53.500;10.020;2023-12-20T10:56:40;6.67;;;1.63;;
5742;SDS011;2896;53.500;10.020;2023-12-20T10:59:09;9.17;;;1.30;;
5742;SDS011;2896;53.500;10.020;2023-12-20T11:01:37;4.37;;;1.63;;
5742;SDS011;2896;53.500;10.020;2023-12-20T11:04:07;5.83;;;1.10;;
5742;SDS011;2896;53.500;10.020;2023-12-20T11:06:40;3.30;;;1.07;;
5742;SDS011;2896;53.500;10.020;2023-12-20T11:09:19;27.67;;;1.57;;
5742;SDS011;2896;53.500;10.020;2023-12-20T11:11:56;6.23;;;1.13;;
5742;SDS011;2896;53.500;10.020;2023-12-20T11:14:31;3.70;;;1.30;;
5742;SDS011;2896;53.500;10.020;2023-12-20T11:17:06;6.03;;;1.70;;
5742;SDS011;2896;53.500;10.020;2023-12-20T11:19:35;9.20;;;2.27;;
5742;SDS011;2896;53.500;10.020;2023-12-20T11:22:03;8.63;;;1.37;;
5742;SDS011;2896;53.500;10.020;2023-12-20T11:24:31;4.53;;;1.50;;
5742;SDS011;2896;53.500;10.020;2023-12-20T11:26:59;7.93;;;2.03;;
5742;SDS011;2896;53.500;10.020;2023-12-20T11:29:32;11.17;;;1.60;;
5742;SDS011;2896;53.500;10.020;2023-12-20T11:32:00;9.30;;;2.43;;
5742;SDS011;2896;53.500;10.020;2023-12-20T11:34:27;10.30;;;1.83;;
5742;SDS011;2896;53.500;10.020;2023-12-20T11:36:57;19.83;;;2.20;;
5742;SDS011;2896;53.500;10.020;2023-12-20T11:39:26;9.20;;;1.60;;
5742;SDS011;2896;53.500;10.020;2023-12-20T11:41:54;5.63;;;2.23;;
5742;SDS011;2896;53.500;10.020;2023-12-20T11:44:22;10.70;;;2.60;;
5742;SDS011;2896;53.500;10.020;2023-12-20T11:46:52;9.50;;;2.13;;
5742;SDS011;2896;53.500;10.020;2023-12-20T11:49:23;10.93;;;2.37;;
5742;SDS011;2896;53.500;10.020;2023-12-20T11:51:56;13.20;;;2.30;;
5742;SDS011;2896;53.500;10.020;2023-12-20T11:54:23;21.27;;;3.00;;
5742;SDS011;2896;53.500;10.020;2023-12-20T11:56:50;7.03;;;2.17;;
5742;SDS011;2896;53.500;10.020;2023-12-20T11:59:17;14.40;;;2.10;;
5742;SDS011;2896;53.500;10.020;2023-12-20T12:01:47;8.50;;;2.50;;
5742;SDS011;2896;53.500;10.020;2023-12-20T12:04:16;8.30;;;2.27;;
5742;SDS011;2896;53.500;10.020;2023-12-20T12:06:45;9.03;;;1.80;;
5742;SDS011;2896;53.500;10.020;2023-12-20T12:09:13;9.77;;;2.40;;
5742;SDS011;2896;53.500;10.020;2023-12-20T12:11:40;14.17;;;3.03;;
5742;SDS011;2896;53.500;10.020;2023-12-20T12:14:07;11.37;;;2.47;;
5742;SDS011;2896;53.500;10.020;2023-12-20T12:16:34;12.67;;;2.43;;
5742;SDS011;2896;53.500;10.020;2023-12-20T12:19:01;15.17;;;3.47;;
5742;SDS011;2896;53.500;10.020;2023-12-20T12:21:30;10.37;;;2.83;;
5742;SDS011;2896;53.500;10.020;2023-12-20T12:24:05;14.93;;;2.30;;
5742;SDS011;2896;53.500;10.020;2023-12-20T12:26:35;13.90;;;2.73;;
5742;SDS011;2896;53.500;10.020;2023-12-20T12:29:02;13.90;;;3.20;;
5742;SDS011;2896;53.500;10.020;2023-12-20T12:31:29;16.53;;;2.83;;
5742;SDS011;2896;53.500;10.020;2023-12-20T12:33:56;16.83;;;3.17;;
5742;SDS011;2896;53.500;10.020;2023-12-20T12:36:23;10.23;;;2.63;;
5742;SDS011;2896;53.500;10.020;2023-12-20T12:38:51;13.70;;;2.70;;
5742;SDS011;2896;53.500;10.020;2023-12-20T12:41:18;14.13;;;3.40;;
5742;SDS011;2896;53.500;10.020;2023-12-20T12:43:45;16.67;;;2.13;;
5742;SDS011;2896;53.500;10.020;2023-12-20T12:46:12;20.97;;;2.83;;
5742;SDS011;2896;53.500;10.020;2023-12-20T12:48:38;18.53;;;3.47;;
5742;SDS011;2896;53.500;10.020;2023-12-20T12:51:05;19.13;;;3.30;;
5742;SDS011;2896;53.500;10.020;2023-12-20T12:53:37;7.70;;;2.80;;
5742;SDS011;2896;53.500;10.020;2023-12-20T12:56:05;13.00;;;2.87;;
5742;SDS011;2896;53.500;10.020;2023-12-20T12:58:32;8.43;;;2.40;;
5742;SDS011;2896;53.500;10.020;2023-12-20T13:00:59;12.90;;;2.70;;
5742;SDS011;2896;53.500;10.020;2023-12-20T13:03:26;8.83;;;3.37;;
5742;SDS011;2896;53.500;10.020;2023-12-20T13:05:52;21.33;;;3.10;;
5742;SDS011;2896;53.500;10.020;2023-12-20T13:08:20;13.80;;;3.40;;
5742;SDS011;2896;53.500;10.020;2023-12-20T13:10:47;10.13;;;3.53;;
5742;SDS011;2896;53.500;10.020;2023-12-20T13:13:14;11.30;;;2.63;;
5742;SDS011;2896;53.500;10.020;2023-12-20T13:15:41;13.10;;;2.87;;
5742;SDS011;2896;53.500;10.020;2023-12-20T13:18:13;14.90;;;3.47;;
5742;SDS011;2896;53.500;10.020;2023-12-20T13:20:39;28.37;;;3.10;;
5742;SDS011;2896;53.500;10.020;2023-12-20T13:23:06;16.40;;;3.67;;
5742;SDS011;2896;53.500;10.020;2023-12-20T13:25:33;21.27;;;3.57;;
5742;SDS011;2896;53.500;10.020;2023-12-20T13:27:59;20.23;;;3.37;;
5742;SDS011;2896;53.500;10.020;2023-12-20T13:30:27;22.87;;;3.27;;
5742;SDS011;2896;53.500;10.020;2023-12-20T13:32:54;15.97;;;3.30;;
5742;SDS011;2896;53.500;10.020;2023-12-20T13:35:21;20.30;;;3.13;;
5742;SDS011;2896;53.500;10.020;2023-12-20T13:37:48;15.63;;;3.30;;
5742;SDS011;2896;53.500;10.020;2023-12-20T13:40:14;30.70;;;3.87;;
5742;SDS011;2896;53.500;10.020;2023-12-20T13:42:41;23.53;;;3.37;;
5742;SDS011;2896;53.500;10.020;2023-12-20T13:45:08;14.13;;;3.90;;
5742;SDS011;2896;53.500;10.020;2023-12-20T13:47:36;33.70;;;5.53;;
5742;SDS011;2896;53.500;10.020;2023-12-20T13:50:03;27.83;;;5.80;;
5742;SDS011;2896;53.500;10.020;2023-12-20T13:52:31;23.13;;;4.27;;
5742;SDS011;2896;53.500;10.020;2023-12-20T13:54:57;16.93;;;4.17;;
5742;SDS011;2896;53.500;10.020;2023-12-20T13:57:24;29.63;;;4.80;;
5742;SDS011;2896;53.500;10.020;2023-12-20T13:59:51;32.63;;;4.57;;
5742;SDS011;2896;53.500;10.020;2023-12-20T14:02:17;28.43;;;5.40;;
5742;SDS011;2896;53.500;10.020;2023-12-20T14:04:45;25.33;;;5.10;;
5742;SDS011;2896;53.500;10.020;2023-12-20T14:07:12;21.10;;;5.70;;
5742;SDS011;2896;53.500;10.020;2023-12-20T14:09:38;39.00;;;5.90;;
5742;SDS011;2896;53.500;10.020;2023-12-20T14:12:10;25.07;;;5.93;;
5742;SDS011;2896;53.500;10.020;2023-12-20T14:14:35;25.97;;;6.00;;
5742;SDS011;2896;53.500;10.020;2023-12-20T14:17:02;35.97;;;6.50;;
5742;SDS011;2896;53.500;10.020;2023-12-20T14:19:31;28.73;;;5.00;;
5742;SDS011;2896;53.500;10.020;2023-12-20T14:21:59;17.37;;;5.10;;
5742;SDS011;2896;53.500;10.020;2023-12-20T14:24:27;34.17;;;5.90;;
5742;SDS011;2896;53.500;10.020;2023-12-20T14:26:53;31.80;;;8.27;;
5742;SDS011;2896;53.500;10.020;2023-12-20T14:29:20;39.40;;;6.30;;
5742;SDS011;2896;53.500;10.020;2023-12-20T14:31:47;26.80;;;7.37;;
5742;SDS011;2896;53.500;10.020;2023-12-20T14:34:14;20.17;;;5.87;;
5742;SDS011;2896;53.500;10.020;2023-12-20T14:36:41;35.00;;;7.00;;
5742;SDS011;2896;53.500;10.020;2023-12-20T14:39:09;27.50;;;6.50;;
5742;SDS011;2896;53.500;10.020;2023-12-20T14:41:38;22.37;;;4.87;;
5742;SDS011;2896;53.500;10.020;2023-12-20T14:44:05;25.53;;;6.23;;
5742;SDS011;2896;53.500;10.020;2023-12-20T14:46:31;28.93;;;6.03;;
5742;SDS011;2896;53.500;10.020;2023-12-20T14:48:58;27.43;;;7.10;;
5742;SDS011;2896;53.500;10.020;2023-12-20T14:51:27;44.20;;;6.37;;